Lehigh Acres, Florida
Current Conditions -  °F | °C
As of 9:53 PM on Wednesday 22 Oct 2014 (Local Time) from KRSW Reporting Station
Overcast Overcast  
Wind Chill: 75°   Ceiling: 3900
Heat Index: 75°   Visibility: 10mi
Dew Point: 72°   Wind: 5mph
Humidity: 90%   Direction: 100°E
Pressure: 29.94"   Gusts: NA
Location:  26.61°N, 81.64°W
Report Text: KRSW 230153Z AUTO 10004KT 10SM OVC039 24/22 A2994 RMK AO2 RAB01E44 SLP136 P0003 T02390222 TSNO
Loading
Personal Weather Stations






























Interactive Weather Map
Tropical Storm Tracking
New forecast layout! Learn more

10-Day Weather Forecast

Advertisements
Track Severe Weather on mobile